sensor_id;sensor_type;location;lat;lon;timestamp;P1;durP1;ratioP1;P2;durP2;ratioP2
3231;SDS011;1628;48.884;9.210;2022-11-20T00:00:15;22.63;;;20.10;;
3231;SDS011;1628;48.884;9.210;2022-11-20T00:02:42;25.47;;;19.63;;
3231;SDS011;1628;48.884;9.210;2022-11-20T00:05:10;27.37;;;19.73;;
3231;SDS011;1628;48.884;9.210;2022-11-20T00:07:37;26.40;;;20.97;;
3231;SDS011;1628;48.884;9.210;2022-11-20T00:10:04;33.70;;;21.43;;
3231;SDS011;1628;48.884;9.210;2022-11-20T00:12:31;70.23;;;24.30;;
3231;SDS011;1628;48.884;9.210;2022-11-20T00:14:58;61.10;;;23.30;;
3231;SDS011;1628;48.884;9.210;2022-11-20T00:17:24;39.13;;;23.20;;
3231;SDS011;1628;48.884;9.210;2022-11-20T00:19:51;42.30;;;22.40;;
3231;SDS011;1628;48.884;9.210;2022-11-20T00:22:19;187.37;;;27.40;;
3231;SDS011;1628;48.884;9.210;2022-11-20T00:24:46;270.27;;;26.57;;
3231;SDS011;1628;48.884;9.210;2022-11-20T00:27:13;62.77;;;23.50;;
3231;SDS011;1628;48.884;9.210;2022-11-20T00:29:39;29.20;;;21.27;;
3231;SDS011;1628;48.884;9.210;2022-11-20T00:32:06;35.13;;;21.47;;
3231;SDS011;1628;48.884;9.210;2022-11-20T00:34:32;110.00;;;22.50;;
3231;SDS011;1628;48.884;9.210;2022-11-20T00:36:59;67.87;;;21.70;;
3231;SDS011;1628;48.884;9.210;2022-11-20T00:39:27;48.73;;;20.63;;
3231;SDS011;1628;48.884;9.210;2022-11-20T00:41:54;38.77;;;20.17;;
3231;SDS011;1628;48.884;9.210;2022-11-20T00:44:20;31.03;;;19.47;;
3231;SDS011;1628;48.884;9.210;2022-11-20T00:46:47;30.33;;;21.23;;
3231;SDS011;1628;48.884;9.210;2022-11-20T00:49:13;26.83;;;18.90;;
3231;SDS011;1628;48.884;9.210;2022-11-20T00:51:40;46.20;;;21.20;;
3231;SDS011;1628;48.884;9.210;2022-11-20T00:54:07;36.77;;;19.47;;
3231;SDS011;1628;48.884;9.210;2022-11-20T00:56:35;38.73;;;20.40;;
3231;SDS011;1628;48.884;9.210;2022-11-20T00:59:01;41.97;;;18.43;;
3231;SDS011;1628;48.884;9.210;2022-11-20T01:01:28;210.37;;;22.40;;
3231;SDS011;1628;48.884;9.210;2022-11-20T01:03:56;143.20;;;22.50;;
3231;SDS011;1628;48.884;9.210;2022-11-20T01:06:25;58.63;;;19.47;;
3231;SDS011;1628;48.884;9.210;2022-11-20T01:08:54;27.40;;;18.60;;
3231;SDS011;1628;48.884;9.210;2022-11-20T01:11:22;81.27;;;20.57;;
3231;SDS011;1628;48.884;9.210;2022-11-20T01:13:52;22.17;;;18.67;;
3231;SDS011;1628;48.884;9.210;2022-11-20T01:16:20;21.40;;;17.03;;
3231;SDS011;1628;48.884;9.210;2022-11-20T01:18:49;32.97;;;20.10;;
3231;SDS011;1628;48.884;9.210;2022-11-20T01:21:18;23.63;;;16.90;;
3231;SDS011;1628;48.884;9.210;2022-11-20T01:23:46;41.13;;;18.00;;
3231;SDS011;1628;48.884;9.210;2022-11-20T01:26:15;45.40;;;18.70;;
3231;SDS011;1628;48.884;9.210;2022-11-20T01:28:44;29.83;;;18.50;;
3231;SDS011;1628;48.884;9.210;2022-11-20T01:31:13;84.07;;;18.60;;
3231;SDS011;1628;48.884;9.210;2022-11-20T01:33:41;47.93;;;19.23;;
3231;SDS011;1628;48.884;9.210;2022-11-20T01:36:09;52.73;;;18.80;;
3231;SDS011;1628;48.884;9.210;2022-11-20T01:38:36;123.70;;;20.60;;
3231;SDS011;1628;48.884;9.210;2022-11-20T01:41:03;250.30;;;25.63;;
3231;SDS011;1628;48.884;9.210;2022-11-20T01:43:31;110.60;;;23.30;;
3231;SDS011;1628;48.884;9.210;2022-11-20T01:46:14;127.57;;;22.90;;
3231;SDS011;1628;48.884;9.210;2022-11-20T01:48:43;108.63;;;21.07;;
3231;SDS011;1628;48.884;9.210;2022-11-20T01:51:15;40.87;;;18.53;;
3231;SDS011;1628;48.884;9.210;2022-11-20T01:53:46;49.27;;;19.73;;
3231;SDS011;1628;48.884;9.210;2022-11-20T01:56:14;105.03;;;19.23;;
3231;SDS011;1628;48.884;9.210;2022-11-20T01:58:45;145.47;;;22.10;;
3231;SDS011;1628;48.884;9.210;2022-11-20T02:01:16;31.07;;;18.17;;
3231;SDS011;1628;48.884;9.210;2022-11-20T02:03:43;99.43;;;20.03;;
3231;SDS011;1628;48.884;9.210;2022-11-20T02:06:11;45.53;;;19.23;;
3231;SDS011;1628;48.884;9.210;2022-11-20T02:08:42;63.30;;;19.70;;
3231;SDS011;1628;48.884;9.210;2022-11-20T02:11:09;39.87;;;17.10;;
3231;SDS011;1628;48.884;9.210;2022-11-20T02:13:37;47.77;;;17.97;;
3231;SDS011;1628;48.884;9.210;2022-11-20T02:16:18;67.27;;;17.20;;
3231;SDS011;1628;48.884;9.210;2022-11-20T02:18:47;27.60;;;15.80;;
3231;SDS011;1628;48.884;9.210;2022-11-20T02:21:20;30.63;;;17.40;;
3231;SDS011;1628;48.884;9.210;2022-11-20T02:24:04;34.30;;;15.93;;
3231;SDS011;1628;48.884;9.210;2022-11-20T02:26:36;19.00;;;15.57;;
3231;SDS011;1628;48.884;9.210;2022-11-20T02:29:07;19.43;;;16.33;;
3231;SDS011;1628;48.884;9.210;2022-11-20T02:31:35;17.70;;;16.00;;
3231;SDS011;1628;48.884;9.210;2022-11-20T02:34:04;16.77;;;15.10;;
3231;SDS011;1628;48.884;9.210;2022-11-20T02:36:31;15.40;;;13.97;;
3231;SDS011;1628;48.884;9.210;2022-11-20T02:38:59;17.07;;;15.47;;
3231;SDS011;1628;48.884;9.210;2022-11-20T02:41:31;17.23;;;15.67;;
3231;SDS011;1628;48.884;9.210;2022-11-20T02:44:02;18.43;;;16.53;;
3231;SDS011;1628;48.884;9.210;2022-11-20T02:46:29;14.40;;;13.20;;
3231;SDS011;1628;48.884;9.210;2022-11-20T02:48:56;14.37;;;13.07;;
3231;SDS011;1628;48.884;9.210;2022-11-20T02:51:23;13.83;;;12.53;;
3231;SDS011;1628;48.884;9.210;2022-11-20T02:53:50;14.40;;;13.10;;
3231;SDS011;1628;48.884;9.210;2022-11-20T02:56:16;13.67;;;12.33;;
3231;SDS011;1628;48.884;9.210;2022-11-20T02:58:45;12.37;;;11.30;;
3231;SDS011;1628;48.884;9.210;2022-11-20T03:01:12;13.80;;;12.60;;
3231;SDS011;1628;48.884;9.210;2022-11-20T03:03:38;11.80;;;10.80;;
3231;SDS011;1628;48.884;9.210;2022-11-20T03:06:05;10.07;;;9.27;;
3231;SDS011;1628;48.884;9.210;2022-11-20T03:08:32;10.43;;;9.60;;
3231;SDS011;1628;48.884;9.210;2022-11-20T03:11:01;8.83;;;8.07;;
3231;SDS011;1628;48.884;9.210;2022-11-20T03:13:29;9.73;;;8.83;;
3231;SDS011;1628;48.884;9.210;2022-11-20T03:15:57;8.80;;;7.90;;
3231;SDS011;1628;48.884;9.210;2022-11-20T03:18:27;8.13;;;7.43;;
3231;SDS011;1628;48.884;9.210;2022-11-20T03:20:56;7.27;;;6.63;;
3231;SDS011;1628;48.884;9.210;2022-11-20T03:23:23;8.60;;;7.47;;
3231;SDS011;1628;48.884;9.210;2022-11-20T03:25:50;6.93;;;6.30;;
3231;SDS011;1628;48.884;9.210;2022-11-20T03:28:16;6.63;;;6.03;;
3231;SDS011;1628;48.884;9.210;2022-11-20T03:30:43;6.60;;;6.10;;
3231;SDS011;1628;48.884;9.210;2022-11-20T03:33:11;6.50;;;5.97;;
3231;SDS011;1628;48.884;9.210;2022-11-20T03:35:38;5.50;;;5.10;;
3231;SDS011;1628;48.884;9.210;2022-11-20T03:38:04;5.37;;;4.97;;
3231;SDS011;1628;48.884;9.210;2022-11-20T03:40:31;5.40;;;5.00;;
3231;SDS011;1628;48.884;9.210;2022-11-20T03:43:00;5.00;;;4.50;;
3231;SDS011;1628;48.884;9.210;2022-11-20T03:45:27;5.27;;;4.87;;
3231;SDS011;1628;48.884;9.210;2022-11-20T03:47:53;7.50;;;5.43;;
3231;SDS011;1628;48.884;9.210;2022-11-20T03:50:21;6.23;;;4.60;;
3231;SDS011;1628;48.884;9.210;2022-11-20T03:52:48;4.33;;;4.03;;
3231;SDS011;1628;48.884;9.210;2022-11-20T03:55:15;4.83;;;4.43;;
3231;SDS011;1628;48.884;9.210;2022-11-20T03:57:41;4.80;;;4.40;;
3231;SDS011;1628;48.884;9.210;2022-11-20T04:00:08;4.73;;;4.30;;
3231;SDS011;1628;48.884;9.210;2022-11-20T04:02:36;6.20;;;5.60;;
3231;SDS011;1628;48.884;9.210;2022-11-20T04:05:03;4.77;;;4.37;;
3231;SDS011;1628;48.884;9.210;2022-11-20T04:07:33;5.93;;;5.40;;
3231;SDS011;1628;48.884;9.210;2022-11-20T04:10:00;5.30;;;4.90;;
3231;SDS011;1628;48.884;9.210;2022-11-20T04:12:27;5.07;;;4.70;;
3231;SDS011;1628;48.884;9.210;2022-11-20T04:14:57;5.80;;;5.27;;
3231;SDS011;1628;48.884;9.210;2022-11-20T04:17:23;5.57;;;5.13;;
3231;SDS011;1628;48.884;9.210;2022-11-20T04:19:51;4.63;;;4.30;;
3231;SDS011;1628;48.884;9.210;2022-11-20T04:22:17;4.87;;;4.57;;
3231;SDS011;1628;48.884;9.210;2022-11-20T04:24:45;5.43;;;4.93;;
3231;SDS011;1628;48.884;9.210;2022-11-20T04:27:12;5.60;;;5.20;;
3231;SDS011;1628;48.884;9.210;2022-11-20T04:29:39;11.10;;;5.13;;
3231;SDS011;1628;48.884;9.210;2022-11-20T04:32:05;5.23;;;4.93;;
3231;SDS011;1628;48.884;9.210;2022-11-20T04:34:32;4.90;;;4.60;;
3231;SDS011;1628;48.884;9.210;2022-11-20T04:37:00;4.83;;;4.53;;
3231;SDS011;1628;48.884;9.210;2022-11-20T04:39:27;4.90;;;4.60;;
3231;SDS011;1628;48.884;9.210;2022-11-20T04:41:55;5.00;;;4.60;;
3231;SDS011;1628;48.884;9.210;2022-11-20T04:44:35;5.33;;;4.40;;
3231;SDS011;1628;48.884;9.210;2022-11-20T04:47:02;5.43;;;5.03;;
3231;SDS011;1628;48.884;9.210;2022-11-20T04:49:29;4.93;;;4.53;;
3231;SDS011;1628;48.884;9.210;2022-11-20T04:51:56;5.50;;;5.00;;
3231;SDS011;1628;48.884;9.210;2022-11-20T04:54:23;4.80;;;4.50;;
3231;SDS011;1628;48.884;9.210;2022-11-20T04:56:50;5.20;;;4.80;;
3231;SDS011;1628;48.884;9.210;2022-11-20T04:59:18;5.40;;;5.00;;
3231;SDS011;1628;48.884;9.210;2022-11-20T05:01:44;4.83;;;4.50;;
3231;SDS011;1628;48.884;9.210;2022-11-20T05:04:11;4.90;;;4.60;;
3231;SDS011;1628;48.884;9.210;2022-11-20T05:06:38;4.97;;;4.67;;
3231;SDS011;1628;48.884;9.210;2022-11-20T05:09:04;5.03;;;4.63;;
3231;SDS011;1628;48.884;9.210;2022-11-20T05:11:31;4.80;;;4.50;;
3231;SDS011;1628;48.884;9.210;2022-11-20T05:13:58;6.03;;;5.03;;
3231;SDS011;1628;48.884;9.210;2022-11-20T05:16:26;5.70;;;5.10;;
3231;SDS011;1628;48.884;9.210;2022-11-20T05:18:53;4.90;;;4.50;;
3231;SDS011;1628;48.884;9.210;2022-11-20T05:21:21;5.00;;;4.53;;
3231;SDS011;1628;48.884;9.210;2022-11-20T05:23:48;4.90;;;4.60;;
3231;SDS011;1628;48.884;9.210;2022-11-20T05:26:15;7.00;;;5.10;;
3231;SDS011;1628;48.884;9.210;2022-11-20T05:28:44;4.83;;;4.43;;
3231;SDS011;1628;48.884;9.210;2022-11-20T05:31:12;5.50;;;4.97;;
3231;SDS011;1628;48.884;9.210;2022-11-20T05:33:42;5.57;;;5.20;;
3231;SDS011;1628;48.884;9.210;2022-11-20T05:36:10;4.83;;;4.43;;
3231;SDS011;1628;48.884;9.210;2022-11-20T05:38:38;4.67;;;4.40;;
3231;SDS011;1628;48.884;9.210;2022-11-20T05:41:06;4.53;;;4.07;;
3231;SDS011;1628;48.884;9.210;2022-11-20T05:43:34;4.50;;;4.20;;
3231;SDS011;1628;48.884;9.210;2022-11-20T05:46:01;5.13;;;4.80;;
3231;SDS011;1628;48.884;9.210;2022-11-20T05:48:28;5.50;;;5.00;;
3231;SDS011;1628;48.884;9.210;2022-11-20T05:50:57;4.80;;;4.40;;
3231;SDS011;1628;48.884;9.210;2022-11-20T05:53:24;4.57;;;4.27;;
3231;SDS011;1628;48.884;9.210;2022-11-20T05:55:58;5.40;;;5.00;;
3231;SDS011;1628;48.884;9.210;2022-11-20T05:58:25;4.90;;;4.30;;
3231;SDS011;1628;48.884;9.210;2022-11-20T06:00:52;4.70;;;4.40;;
3231;SDS011;1628;48.884;9.210;2022-11-20T06:03:18;5.03;;;4.33;;
3231;SDS011;1628;48.884;9.210;2022-11-20T06:05:45;4.87;;;4.37;;
3231;SDS011;1628;48.884;9.210;2022-11-20T06:08:13;4.87;;;4.57;;
3231;SDS011;1628;48.884;9.210;2022-11-20T06:10:40;4.43;;;4.03;;
3231;SDS011;1628;48.884;9.210;2022-11-20T06:13:07;4.40;;;4.10;;
3231;SDS011;1628;48.884;9.210;2022-11-20T06:15:33;4.50;;;4.30;;
3231;SDS011;1628;48.884;9.210;2022-11-20T06:18:00;4.77;;;4.47;;
3231;SDS011;1628;48.884;9.210;2022-11-20T06:20:27;4.97;;;4.67;;
3231;SDS011;1628;48.884;9.210;2022-11-20T06:22:53;4.67;;;4.27;;
3231;SDS011;1628;48.884;9.210;2022-11-20T06:25:21;4.90;;;4.60;;
3231;SDS011;1628;48.884;9.210;2022-11-20T06:27:48;5.13;;;4.73;;
3231;SDS011;1628;48.884;9.210;2022-11-20T06:30:15;4.37;;;4.07;;
3231;SDS011;1628;48.884;9.210;2022-11-20T06:32:42;4.63;;;4.33;;
3231;SDS011;1628;48.884;9.210;2022-11-20T06:35:09;5.77;;;4.60;;
3231;SDS011;1628;48.884;9.210;2022-11-20T06:37:36;4.80;;;4.40;;
3231;SDS011;1628;48.884;9.210;2022-11-20T06:40:03;4.40;;;3.90;;
3231;SDS011;1628;48.884;9.210;2022-11-20T06:42:33;4.57;;;4.27;;
3231;SDS011;1628;48.884;9.210;2022-11-20T06:44:59;4.40;;;4.10;;
3231;SDS011;1628;48.884;9.210;2022-11-20T06:47:26;4.20;;;3.90;;
3231;SDS011;1628;48.884;9.210;2022-11-20T06:49:53;4.43;;;4.10;;
3231;SDS011;1628;48.884;9.210;2022-11-20T06:52:19;4.70;;;4.50;;
3231;SDS011;1628;48.884;9.210;2022-11-20T06:54:46;4.90;;;4.60;;
3231;SDS011;1628;48.884;9.210;2022-11-20T06:57:13;4.13;;;3.73;;
3231;SDS011;1628;48.884;9.210;2022-11-20T06:59:41;4.40;;;3.60;;
3231;SDS011;1628;48.884;9.210;2022-11-20T07:02:09;4.73;;;4.10;;
3231;SDS011;1628;48.884;9.210;2022-11-20T07:04:35;4.00;;;3.80;;
3231;SDS011;1628;48.884;9.210;2022-11-20T07:07:02;3.80;;;3.60;;
3231;SDS011;1628;48.884;9.210;2022-11-20T07:09:29;3.50;;;3.30;;
3231;SDS011;1628;48.884;9.210;2022-11-20T07:11:55;3.60;;;3.40;;
3231;SDS011;1628;48.884;9.210;2022-11-20T07:14:22;3.70;;;3.43;;
3231;SDS011;1628;48.884;9.210;2022-11-20T07:16:50;2.70;;;2.60;;
3231;SDS011;1628;48.884;9.210;2022-11-20T07:19:17;2.83;;;2.73;;
3231;SDS011;1628;48.884;9.210;2022-11-20T07:21:43;2.80;;;2.60;;
3231;SDS011;1628;48.884;9.210;2022-11-20T07:24:10;3.00;;;2.80;;
3231;SDS011;1628;48.884;9.210;2022-11-20T07:26:37;2.77;;;2.57;;
3231;SDS011;1628;48.884;9.210;2022-11-20T07:29:03;4.50;;;2.73;;
3231;SDS011;1628;48.884;9.210;2022-11-20T07:31:30;2.20;;;2.10;;
3231;SDS011;1628;48.884;9.210;2022-11-20T07:33:58;3.07;;;2.87;;
3231;SDS011;1628;48.884;9.210;2022-11-20T07:36:25;2.53;;;2.43;;
3231;SDS011;1628;48.884;9.210;2022-11-20T07:38:52;3.43;;;3.23;;
3231;SDS011;1628;48.884;9.210;2022-11-20T07:41:19;2.60;;;2.40;;
3231;SDS011;1628;48.884;9.210;2022-11-20T07:43:46;2.23;;;2.13;;
3231;SDS011;1628;48.884;9.210;2022-11-20T07:46:12;2.27;;;2.07;;
3231;SDS011;1628;48.884;9.210;2022-11-20T07:48:39;4.53;;;2.10;;
3231;SDS011;1628;48.884;9.210;2022-11-20T07:51:07;2.17;;;2.07;;
3231;SDS011;1628;48.884;9.210;2022-11-20T07:53:34;2.13;;;2.10;;
3231;SDS011;1628;48.884;9.210;2022-11-20T07:56:00;2.70;;;2.53;;
3231;SDS011;1628;48.884;9.210;2022-11-20T07:58:28;2.80;;;2.70;;
3231;SDS011;1628;48.884;9.210;2022-11-20T08:00:55;2.00;;;1.90;;
3231;SDS011;1628;48.884;9.210;2022-11-20T08:03:22;2.47;;;2.23;;
3231;SDS011;1628;48.884;9.210;2022-11-20T08:05:48;2.53;;;2.33;;
3231;SDS011;1628;48.884;9.210;2022-11-20T08:08:16;2.43;;;2.33;;
3231;SDS011;1628;48.884;9.210;2022-11-20T08:10:43;2.30;;;2.20;;
3231;SDS011;1628;48.884;9.210;2022-11-20T08:13:10;2.73;;;2.63;;
3231;SDS011;1628;48.884;9.210;2022-11-20T08:15:54;2.83;;;2.63;;
3231;SDS011;1628;48.884;9.210;2022-11-20T08:18:21;2.90;;;2.70;;
3231;SDS011;1628;48.884;9.210;2022-11-20T08:20:48;2.93;;;2.70;;
3231;SDS011;1628;48.884;9.210;2022-11-20T08:23:14;3.00;;;2.80;;
3231;SDS011;1628;48.884;9.210;2022-11-20T08:25:42;3.07;;;2.87;;
3231;SDS011;1628;48.884;9.210;2022-11-20T08:28:09;3.77;;;3.53;;
3231;SDS011;1628;48.884;9.210;2022-11-20T08:30:36;3.50;;;3.30;;
3231;SDS011;1628;48.884;9.210;2022-11-20T08:33:03;3.53;;;3.27;;
3231;SDS011;1628;48.884;9.210;2022-11-20T08:35:32;4.63;;;4.30;;
3231;SDS011;1628;48.884;9.210;2022-11-20T08:38:00;4.10;;;3.80;;
3231;SDS011;1628;48.884;9.210;2022-11-20T08:40:28;4.10;;;3.80;;
3231;SDS011;1628;48.884;9.210;2022-11-20T08:42:55;3.47;;;3.17;;
3231;SDS011;1628;48.884;9.210;2022-11-20T08:45:22;2.90;;;2.70;;
3231;SDS011;1628;48.884;9.210;2022-11-20T08:47:49;4.20;;;3.30;;
3231;SDS011;1628;48.884;9.210;2022-11-20T08:50:16;4.80;;;2.40;;
3231;SDS011;1628;48.884;9.210;2022-11-20T08:52:43;2.90;;;2.60;;
3231;SDS011;1628;48.884;9.210;2022-11-20T08:55:10;2.67;;;2.57;;
3231;SDS011;1628;48.884;9.210;2022-11-20T08:57:39;2.97;;;2.67;;
3231;SDS011;1628;48.884;9.210;2022-11-20T09:00:06;2.07;;;1.87;;
3231;SDS011;1628;48.884;9.210;2022-11-20T09:02:35;1.80;;;1.80;;
3231;SDS011;1628;48.884;9.210;2022-11-20T09:05:02;1.80;;;1.80;;
3231;SDS011;1628;48.884;9.210;2022-11-20T09:07:29;1.40;;;1.40;;
3231;SDS011;1628;48.884;9.210;2022-11-20T09:09:56;1.20;;;1.20;;
3231;SDS011;1628;48.884;9.210;2022-11-20T09:12:23;1.43;;;1.33;;
3231;SDS011;1628;48.884;9.210;2022-11-20T09:14:51;1.30;;;1.30;;
3231;SDS011;1628;48.884;9.210;2022-11-20T09:17:18;1.27;;;1.27;;
3231;SDS011;1628;48.884;9.210;2022-11-20T09:19:45;1.10;;;1.10;;
3231;SDS011;1628;48.884;9.210;2022-11-20T09:22:12;1.07;;;1.07;;
3231;SDS011;1628;48.884;9.210;2022-11-20T09:24:39;1.30;;;1.30;;
3231;SDS011;1628;48.884;9.210;2022-11-20T09:27:06;1.30;;;1.20;;
3231;SDS011;1628;48.884;9.210;2022-11-20T09:29:33;1.20;;;1.20;;
3231;SDS011;1628;48.884;9.210;2022-11-20T09:32:01;1.27;;;1.27;;
3231;SDS011;1628;48.884;9.210;2022-11-20T09:34:28;0.90;;;0.90;;
3231;SDS011;1628;48.884;9.210;2022-11-20T09:36:54;1.20;;;1.20;;
3231;SDS011;1628;48.884;9.210;2022-11-20T09:39:21;1.37;;;1.37;;
3231;SDS011;1628;48.884;9.210;2022-11-20T09:42:03;1.07;;;1.07;;
3231;SDS011;1628;48.884;9.210;2022-11-20T09:44:40;0.90;;;0.90;;
3231;SDS011;1628;48.884;9.210;2022-11-20T09:47:21;1.30;;;1.20;;
3231;SDS011;1628;48.884;9.210;2022-11-20T09:49:59;0.90;;;0.90;;
3231;SDS011;1628;48.884;9.210;2022-11-20T09:52:41;0.90;;;0.90;;
3231;SDS011;1628;48.884;9.210;2022-11-20T09:55:20;1.30;;;1.30;;
3231;SDS011;1628;48.884;9.210;2022-11-20T09:57:48;2.77;;;1.53;;
3231;SDS011;1628;48.884;9.210;2022-11-20T10:00:18;1.10;;;1.10;;
3231;SDS011;1628;48.884;9.210;2022-11-20T10:02:48;0.93;;;0.93;;
3231;SDS011;1628;48.884;9.210;2022-11-20T10:05:21;1.50;;;1.50;;
3231;SDS011;1628;48.884;9.210;2022-11-20T10:07:52;1.13;;;1.13;;
3231;SDS011;1628;48.884;9.210;2022-11-20T10:10:40;1.43;;;1.43;;
3231;SDS011;1628;48.884;9.210;2022-11-20T10:13:13;1.50;;;1.50;;
3231;SDS011;1628;48.884;9.210;2022-11-20T10:16:00;1.50;;;1.50;;
3231;SDS011;1628;48.884;9.210;2022-11-20T10:18:39;1.30;;;1.20;;
3231;SDS011;1628;48.884;9.210;2022-11-20T10:21:16;1.43;;;1.33;;
3231;SDS011;1628;48.884;9.210;2022-11-20T10:24:00;2.83;;;2.20;;
3231;SDS011;1628;48.884;9.210;2022-11-20T10:26:42;1.33;;;1.33;;
3231;SDS011;1628;48.884;9.210;2022-11-20T10:29:18;1.20;;;1.20;;
3231;SDS011;1628;48.884;9.210;2022-11-20T10:31:50;1.30;;;1.30;;
3231;SDS011;1628;48.884;9.210;2022-11-20T10:34:22;1.60;;;1.30;;
3231;SDS011;1628;48.884;9.210;2022-11-20T10:36:54;1.20;;;1.20;;
3231;SDS011;1628;48.884;9.210;2022-11-20T10:39:25;1.60;;;1.50;;
3231;SDS011;1628;48.884;9.210;2022-11-20T10:41:58;1.60;;;1.10;;
3231;SDS011;1628;48.884;9.210;2022-11-20T10:44:27;1.13;;;1.13;;
3231;SDS011;1628;48.884;9.210;2022-11-20T10:47:13;1.40;;;1.40;;
3231;SDS011;1628;48.884;9.210;2022-11-20T10:49:42;1.10;;;1.00;;
3231;SDS011;1628;48.884;9.210;2022-11-20T10:52:12;1.57;;;1.47;;
3231;SDS011;1628;48.884;9.210;2022-11-20T10:54:47;1.60;;;1.50;;
3231;SDS011;1628;48.884;9.210;2022-11-20T10:57:20;1.37;;;1.27;;
3231;SDS011;1628;48.884;9.210;2022-11-20T10:59:59;2.50;;;2.40;;
3231;SDS011;1628;48.884;9.210;2022-11-20T11:02:34;3.67;;;1.60;;
3231;SDS011;1628;48.884;9.210;2022-11-20T11:05:10;2.77;;;2.23;;
3231;SDS011;1628;48.884;9.210;2022-11-20T11:07:43;2.27;;;2.20;;
3231;SDS011;1628;48.884;9.210;2022-11-20T11:10:14;3.10;;;2.90;;
3231;SDS011;1628;48.884;9.210;2022-11-20T11:12:43;3.07;;;2.87;;
3231;SDS011;1628;48.884;9.210;2022-11-20T11:15:13;4.70;;;3.40;;
3231;SDS011;1628;48.884;9.210;2022-11-20T11:17:50;3.27;;;3.07;;
3231;SDS011;1628;48.884;9.210;2022-11-20T11:20:19;2.97;;;2.87;;
3231;SDS011;1628;48.884;9.210;2022-11-20T11:22:47;3.37;;;3.17;;
3231;SDS011;1628;48.884;9.210;2022-11-20T11:25:19;2.27;;;2.17;;
3231;SDS011;1628;48.884;9.210;2022-11-20T11:27:51;3.43;;;3.13;;
3231;SDS011;1628;48.884;9.210;2022-11-20T11:30:20;2.20;;;2.10;;
3231;SDS011;1628;48.884;9.210;2022-11-20T11:32:46;3.37;;;3.10;;
3231;SDS011;1628;48.884;9.210;2022-11-20T11:35:23;6.57;;;4.30;;
3231;SDS011;1628;48.884;9.210;2022-11-20T11:37:51;3.00;;;2.80;;
3231;SDS011;1628;48.884;9.210;2022-11-20T11:40:20;2.60;;;2.50;;
3231;SDS011;1628;48.884;9.210;2022-11-20T11:42:50;3.07;;;2.10;;
3231;SDS011;1628;48.884;9.210;2022-11-20T11:45:20;2.80;;;2.60;;
3231;SDS011;1628;48.884;9.210;2022-11-20T11:47:47;2.47;;;2.27;;
3231;SDS011;1628;48.884;9.210;2022-11-20T11:50:15;2.93;;;2.73;;
3231;SDS011;1628;48.884;9.210;2022-11-20T11:52:45;2.60;;;2.40;;
3231;SDS011;1628;48.884;9.210;2022-11-20T11:55:19;2.23;;;2.00;;
3231;SDS011;1628;48.884;9.210;2022-11-20T11:57:56;2.33;;;2.13;;
3231;SDS011;1628;48.884;9.210;2022-11-20T12:00:31;3.90;;;2.87;;
3231;SDS011;1628;48.884;9.210;2022-11-20T12:03:00;8.67;;;7.13;;
3231;SDS011;1628;48.884;9.210;2022-11-20T12:05:36;2.53;;;2.10;;
3231;SDS011;1628;48.884;9.210;2022-11-20T12:08:12;2.70;;;2.13;;
3231;SDS011;1628;48.884;9.210;2022-11-20T12:10:45;2.63;;;1.97;;
3231;SDS011;1628;48.884;9.210;2022-11-20T12:13:17;3.80;;;2.40;;
3231;SDS011;1628;48.884;9.210;2022-11-20T12:15:51;5.03;;;2.00;;
3231;SDS011;1628;48.884;9.210;2022-11-20T12:18:19;2.87;;;2.07;;
3231;SDS011;1628;48.884;9.210;2022-11-20T12:20:50;4.07;;;2.53;;
3231;SDS011;1628;48.884;9.210;2022-11-20T12:23:27;3.10;;;2.47;;
3231;SDS011;1628;48.884;9.210;2022-11-20T12:25:58;1.70;;;1.33;;
3231;SDS011;1628;48.884;9.210;2022-11-20T12:28:34;2.73;;;2.50;;
3231;SDS011;1628;48.884;9.210;2022-11-20T12:31:14;4.43;;;4.03;;
3231;SDS011;1628;48.884;9.210;2022-11-20T12:34:07;2.40;;;2.30;;
3231;SDS011;1628;48.884;9.210;2022-11-20T12:36:48;1.70;;;1.57;;
3231;SDS011;1628;48.884;9.210;2022-11-20T12:39:28;3.33;;;2.03;;
3231;SDS011;1628;48.884;9.210;2022-11-20T12:45:28;2.37;;;1.30;;
3231;SDS011;1628;48.884;9.210;2022-11-20T12:48:13;1.63;;;1.50;;
3231;SDS011;1628;48.884;9.210;2022-11-20T12:51:07;2.70;;;1.97;;
3231;SDS011;1628;48.884;9.210;2022-11-20T12:53:50;3.27;;;1.43;;
3231;SDS011;1628;48.884;9.210;2022-11-20T12:56:34;1.90;;;1.63;;
3231;SDS011;1628;48.884;9.210;2022-11-20T12:59:13;1.83;;;1.60;;
3231;SDS011;1628;48.884;9.210;2022-11-20T13:01:55;1.00;;;0.90;;
3231;SDS011;1628;48.884;9.210;2022-11-20T13:04:31;1.80;;;1.20;;
3231;SDS011;1628;48.884;9.210;2022-11-20T13:07:10;1.30;;;1.10;;
3231;SDS011;1628;48.884;9.210;2022-11-20T13:09:40;2.20;;;1.37;;
3231;SDS011;1628;48.884;9.210;2022-11-20T13:12:13;1.60;;;1.30;;
3231;SDS011;1628;48.884;9.210;2022-11-20T13:14:45;1.83;;;1.17;;
3231;SDS011;1628;48.884;9.210;2022-11-20T13:17:19;5.20;;;1.17;;
3231;SDS011;1628;48.884;9.210;2022-11-20T13:19:51;1.47;;;1.37;;
3231;SDS011;1628;48.884;9.210;2022-11-20T13:22:26;1.70;;;1.60;;
3231;SDS011;1628;48.884;9.210;2022-11-20T13:24:53;1.73;;;1.07;;
3231;SDS011;1628;48.884;9.210;2022-11-20T13:27:22;1.70;;;1.23;;
3231;SDS011;1628;48.884;9.210;2022-11-20T13:29:59;1.07;;;1.07;;
3231;SDS011;1628;48.884;9.210;2022-11-20T13:32:28;2.57;;;1.33;;
3231;SDS011;1628;48.884;9.210;2022-11-20T13:34:58;4.87;;;1.50;;
3231;SDS011;1628;48.884;9.210;2022-11-20T13:37:30;1.50;;;1.40;;
3231;SDS011;1628;48.884;9.210;2022-11-20T13:40:05;1.60;;;1.50;;
3231;SDS011;1628;48.884;9.210;2022-11-20T13:42:54;3.03;;;1.40;;
3231;SDS011;1628;48.884;9.210;2022-11-20T13:45:23;1.37;;;1.00;;
3231;SDS011;1628;48.884;9.210;2022-11-20T13:47:52;1.03;;;1.00;;
3231;SDS011;1628;48.884;9.210;2022-11-20T13:50:21;1.00;;;1.00;;
3231;SDS011;1628;48.884;9.210;2022-11-20T13:53:06;1.63;;;1.07;;
3231;SDS011;1628;48.884;9.210;2022-11-20T13:55:47;1.00;;;1.00;;
3231;SDS011;1628;48.884;9.210;2022-11-20T13:58:26;1.50;;;1.40;;
3231;SDS011;1628;48.884;9.210;2022-11-20T14:01:07;1.40;;;1.30;;
3231;SDS011;1628;48.884;9.210;2022-11-20T14:03:35;2.07;;;1.40;;
3231;SDS011;1628;48.884;9.210;2022-11-20T14:06:05;6.70;;;2.90;;
3231;SDS011;1628;48.884;9.210;2022-11-20T14:08:39;5.23;;;4.10;;
3231;SDS011;1628;48.884;9.210;2022-11-20T14:11:12;1.23;;;1.13;;
3231;SDS011;1628;48.884;9.210;2022-11-20T14:13:52;3.87;;;3.47;;
3231;SDS011;1628;48.884;9.210;2022-11-20T14:16:23;2.57;;;1.30;;
3231;SDS011;1628;48.884;9.210;2022-11-20T14:18:51;1.80;;;1.20;;
3231;SDS011;1628;48.884;9.210;2022-11-20T14:21:21;1.23;;;1.23;;
3231;SDS011;1628;48.884;9.210;2022-11-20T14:23:51;2.60;;;1.50;;
3231;SDS011;1628;48.884;9.210;2022-11-20T14:26:20;1.40;;;1.20;;
3231;SDS011;1628;48.884;9.210;2022-11-20T14:28:47;4.40;;;4.10;;
3231;SDS011;1628;48.884;9.210;2022-11-20T14:31:23;2.30;;;1.97;;
3231;SDS011;1628;48.884;9.210;2022-11-20T14:33:52;1.53;;;1.43;;
3231;SDS011;1628;48.884;9.210;2022-11-20T14:36:20;3.60;;;1.60;;
3231;SDS011;1628;48.884;9.210;2022-11-20T14:38:48;1.70;;;1.60;;
3231;SDS011;1628;48.884;9.210;2022-11-20T14:41:16;3.53;;;2.77;;
3231;SDS011;1628;48.884;9.210;2022-11-20T14:43:47;1.30;;;1.20;;
3231;SDS011;1628;48.884;9.210;2022-11-20T14:46:20;2.33;;;1.63;;
3231;SDS011;1628;48.884;9.210;2022-11-20T14:48:48;1.90;;;1.30;;
3231;SDS011;1628;48.884;9.210;2022-11-20T14:51:23;1.50;;;1.27;;
3231;SDS011;1628;48.884;9.210;2022-11-20T14:53:54;3.40;;;1.60;;
3231;SDS011;1628;48.884;9.210;2022-11-20T14:56:21;1.43;;;1.33;;
3231;SDS011;1628;48.884;9.210;2022-11-20T14:58:55;4.60;;;3.33;;
3231;SDS011;1628;48.884;9.210;2022-11-20T15:01:26;3.03;;;1.87;;
3231;SDS011;1628;48.884;9.210;2022-11-20T15:03:59;1.40;;;1.27;;
3231;SDS011;1628;48.884;9.210;2022-11-20T15:06:27;1.57;;;1.53;;
3231;SDS011;1628;48.884;9.210;2022-11-20T15:08:54;2.07;;;1.40;;
3231;SDS011;1628;48.884;9.210;2022-11-20T15:11:23;1.70;;;1.60;;
3231;SDS011;1628;48.884;9.210;2022-11-20T15:13:55;1.90;;;1.33;;
3231;SDS011;1628;48.884;9.210;2022-11-20T15:16:22;1.63;;;1.53;;
3231;SDS011;1628;48.884;9.210;2022-11-20T15:18:52;1.80;;;1.70;;
3231;SDS011;1628;48.884;9.210;2022-11-20T15:21:19;3.30;;;1.70;;
3231;SDS011;1628;48.884;9.210;2022-11-20T15:23:47;2.30;;;2.10;;
3231;SDS011;1628;48.884;9.210;2022-11-20T15:26:14;3.10;;;1.60;;
3231;SDS011;1628;48.884;9.210;2022-11-20T15:28:46;2.47;;;1.70;;